sensor_id;sensor_type;location;lat;lon;timestamp;temperature;humidity
2439;DHT22;14509;47.992;7.848;2023-06-10T00:24:16;23.90;41.80
2439;DHT22;14509;47.992;7.848;2023-06-10T00:26:18;23.90;42.00
2439;DHT22;14509;47.992;7.848;2023-06-10T00:28:21;23.80;42.00
2439;DHT22;14509;47.992;7.848;2023-06-10T00:30:24;23.60;42.10
2439;DHT22;14509;47.992;7.848;2023-06-10T00:32:26;23.80;42.40
2439;DHT22;14509;47.992;7.848;2023-06-10T00:34:29;23.80;42.40
2439;DHT22;14509;47.992;7.848;2023-06-10T00:36:33;23.70;42.50
2439;DHT22;14509;47.992;7.848;2023-06-10T00:38:36;23.80;42.60
2439;DHT22;14509;47.992;7.848;2023-06-10T00:40:41;23.90;42.90
2439;DHT22;14509;47.992;7.848;2023-06-10T00:42:43;23.60;42.90
2439;DHT22;14509;47.992;7.848;2023-06-10T00:44:46;23.60;43.00
2439;DHT22;14509;47.992;7.848;2023-06-10T00:46:48;24.30;43.70
2439;DHT22;14509;47.992;7.848;2023-06-10T00:48:52;23.50;43.30
2439;DHT22;14509;47.992;7.848;2023-06-10T00:50:54;23.40;43.30
2439;DHT22;14509;47.992;7.848;2023-06-10T00:52:56;23.50;43.60
2439;DHT22;14509;47.992;7.848;2023-06-10T00:54:59;23.40;43.80
2439;DHT22;14509;47.992;7.848;2023-06-10T00:57:03;23.40;43.80
2439;DHT22;14509;47.992;7.848;2023-06-10T00:59:06;23.30;44.00
2439;DHT22;14509;47.992;7.848;2023-06-10T01:01:08;23.30;44.00
2439;DHT22;14509;47.992;7.848;2023-06-10T01:03:11;23.50;44.10
2439;DHT22;14509;47.992;7.848;2023-06-10T01:05:13;23.20;44.00
2439;DHT22;14509;47.992;7.848;2023-06-10T01:07:23;23.20;44.10
2439;DHT22;14509;47.992;7.848;2023-06-10T01:09:33;23.20;44.20
2439;DHT22;14509;47.992;7.848;2023-06-10T01:11:44;23.00;44.00
2439;DHT22;14509;47.992;7.848;2023-06-10T01:13:50;23.20;44.30
2439;DHT22;14509;47.992;7.848;2023-06-10T01:15:53;23.00;44.20
2439;DHT22;14509;47.992;7.848;2023-06-10T01:17:56;22.90;44.20
2439;DHT22;14509;47.992;7.848;2023-06-10T01:19:59;23.50;44.80
2439;DHT22;14509;47.992;7.848;2023-06-10T01:22:05;22.90;44.30
2439;DHT22;14509;47.992;7.848;2023-06-10T01:24:07;22.80;44.50
2439;DHT22;14509;47.992;7.848;2023-06-10T01:26:14;22.80;44.70
2439;DHT22;14509;47.992;7.848;2023-06-10T01:28:22;22.80;44.80
2439;DHT22;14509;47.992;7.848;2023-06-10T01:30:29;22.80;44.80
2439;DHT22;14509;47.992;7.848;2023-06-10T01:32:34;22.70;45.50
2439;DHT22;14509;47.992;7.848;2023-06-10T01:34:39;22.70;44.90
2439;DHT22;14509;47.992;7.848;2023-06-10T01:36:46;22.70;45.50
2439;DHT22;14509;47.992;7.848;2023-06-10T01:38:50;22.60;45.00
2439;DHT22;14509;47.992;7.848;2023-06-10T01:40:55;22.60;45.20
2439;DHT22;14509;47.992;7.848;2023-06-10T01:42:58;22.50;45.20
2439;DHT22;14509;47.992;7.848;2023-06-10T01:45:00;22.40;45.10
2439;DHT22;14509;47.992;7.848;2023-06-10T01:47:03;22.80;45.70
2439;DHT22;14509;47.992;7.848;2023-06-10T01:49:05;22.30;45.60
2439;DHT22;14509;47.992;7.848;2023-06-10T01:51:08;22.40;45.90
2439;DHT22;14509;47.992;7.848;2023-06-10T01:53:10;22.30;45.80
2439;DHT22;14509;47.992;7.848;2023-06-10T01:55:14;22.20;45.70
2439;DHT22;14509;47.992;7.848;2023-06-10T01:57:16;22.30;45.80
2439;DHT22;14509;47.992;7.848;2023-06-10T01:59:18;22.20;45.70
2439;DHT22;14509;47.992;7.848;2023-06-10T02:01:20;22.20;45.70
2439;DHT22;14509;47.992;7.848;2023-06-10T02:03:22;22.20;45.60
2439;DHT22;14509;47.992;7.848;2023-06-10T02:05:24;22.10;45.50
2439;DHT22;14509;47.992;7.848;2023-06-10T02:07:26;22.10;45.50
2439;DHT22;14509;47.992;7.848;2023-06-10T02:09:29;22.30;45.70
2439;DHT22;14509;47.992;7.848;2023-06-10T02:11:33;22.00;45.60
2439;DHT22;14509;47.992;7.848;2023-06-10T02:13:35;22.10;45.80
2439;DHT22;14509;47.992;7.848;2023-06-10T02:15:37;22.00;45.80
2439;DHT22;14509;47.992;7.848;2023-06-10T02:17:39;22.00;45.90
2439;DHT22;14509;47.992;7.848;2023-06-10T02:19:41;21.90;45.80
2439;DHT22;14509;47.992;7.848;2023-06-10T02:21:44;22.40;46.40
2439;DHT22;14509;47.992;7.848;2023-06-10T02:23:46;21.80;46.10
2439;DHT22;14509;47.992;7.848;2023-06-10T02:25:47;22.00;46.40
2439;DHT22;14509;47.992;7.848;2023-06-10T02:27:51;22.60;47.00
2439;DHT22;14509;47.992;7.848;2023-06-10T02:29:53;21.70;46.40
2439;DHT22;14509;47.992;7.848;2023-06-10T02:31:55;21.60;46.40
2439;DHT22;14509;47.992;7.848;2023-06-10T02:33:57;21.60;46.60
2439;DHT22;14509;47.992;7.848;2023-06-10T02:36:00;21.50;46.70
2439;DHT22;14509;47.992;7.848;2023-06-10T02:38:02;21.50;47.00
2439;DHT22;14509;47.992;7.848;2023-06-10T02:40:06;21.50;47.00
2439;DHT22;14509;47.992;7.848;2023-06-10T02:42:09;21.40;47.10
2439;DHT22;14509;47.992;7.848;2023-06-10T02:44:13;21.40;47.10
2439;DHT22;14509;47.992;7.848;2023-06-10T02:46:15;21.40;47.70
2439;DHT22;14509;47.992;7.848;2023-06-10T02:48:18;21.80;47.40
2439;DHT22;14509;47.992;7.848;2023-06-10T02:50:20;21.40;47.10
2439;DHT22;14509;47.992;7.848;2023-06-10T02:52:32;21.40;47.10
2439;DHT22;14509;47.992;7.848;2023-06-10T02:54:34;21.30;47.20
2439;DHT22;14509;47.992;7.848;2023-06-10T02:56:38;21.70;47.60
2439;DHT22;14509;47.992;7.848;2023-06-10T02:58:46;21.20;47.40
2439;DHT22;14509;47.992;7.848;2023-06-10T03:00:51;22.00;48.20
2439;DHT22;14509;47.992;7.848;2023-06-10T03:02:54;21.30;47.70
2439;DHT22;14509;47.992;7.848;2023-06-10T03:05:01;21.50;48.00
2439;DHT22;14509;47.992;7.848;2023-06-10T03:07:04;21.20;47.60
2439;DHT22;14509;47.992;7.848;2023-06-10T03:09:09;21.20;47.60
2439;DHT22;14509;47.992;7.848;2023-06-10T03:11:13;21.20;47.70
2439;DHT22;14509;47.992;7.848;2023-06-10T03:13:15;21.70;48.00
2439;DHT22;14509;47.992;7.848;2023-06-10T03:15:18;21.20;47.50
2439;DHT22;14509;47.992;7.848;2023-06-10T03:17:24;21.10;47.50
2439;DHT22;14509;47.992;7.848;2023-06-10T03:19:26;22.00;48.40
2439;DHT22;14509;47.992;7.848;2023-06-10T03:21:29;21.10;47.60
2439;DHT22;14509;47.992;7.848;2023-06-10T03:23:33;21.10;47.60
2439;DHT22;14509;47.992;7.848;2023-06-10T03:25:35;21.10;47.60
2439;DHT22;14509;47.992;7.848;2023-06-10T03:27:37;21.20;47.60
2439;DHT22;14509;47.992;7.848;2023-06-10T03:29:42;22.50;48.70
2439;DHT22;14509;47.992;7.848;2023-06-10T03:31:44;21.10;47.60
2439;DHT22;14509;47.992;7.848;2023-06-10T03:33:48;21.10;47.60
2439;DHT22;14509;47.992;7.848;2023-06-10T03:35:50;21.10;47.70
2439;DHT22;14509;47.992;7.848;2023-06-10T03:37:52;20.90;47.70
2439;DHT22;14509;47.992;7.848;2023-06-10T03:39:54;21.00;47.80
2439;DHT22;14509;47.992;7.848;2023-06-10T03:41:56;21.10;47.80
2439;DHT22;14509;47.992;7.848;2023-06-10T03:44:00;22.00;48.50
2439;DHT22;14509;47.992;7.848;2023-06-10T03:46:02;21.10;47.90
2439;DHT22;14509;47.992;7.848;2023-06-10T03:48:05;21.10;47.70
2439;DHT22;14509;47.992;7.848;2023-06-10T03:50:20;21.10;47.70
2439;DHT22;14509;47.992;7.848;2023-06-10T03:52:24;21.10;47.50
2439;DHT22;14509;47.992;7.848;2023-06-10T03:54:25;21.60;48.00
2439;DHT22;14509;47.992;7.848;2023-06-10T03:56:27;21.10;47.70
2439;DHT22;14509;47.992;7.848;2023-06-10T03:58:30;21.10;47.60
2439;DHT22;14509;47.992;7.848;2023-06-10T04:00:33;21.20;47.50
2439;DHT22;14509;47.992;7.848;2023-06-10T04:02:42;21.20;47.50
2439;DHT22;14509;47.992;7.848;2023-06-10T04:04:56;21.60;47.80
2439;DHT22;14509;47.992;7.848;2023-06-10T04:06:59;21.20;47.60
2439;DHT22;14509;47.992;7.848;2023-06-10T04:09:01;21.20;47.60
2439;DHT22;14509;47.992;7.848;2023-06-10T04:11:03;21.50;47.80
2439;DHT22;14509;47.992;7.848;2023-06-10T04:13:05;21.20;47.60
2439;DHT22;14509;47.992;7.848;2023-06-10T04:15:14;21.90;48.20
2439;DHT22;14509;47.992;7.848;2023-06-10T04:17:16;21.30;47.70
2439;DHT22;14509;47.992;7.848;2023-06-10T04:19:18;21.30;47.70
2439;DHT22;14509;47.992;7.848;2023-06-10T04:21:21;21.30;48.30
2439;DHT22;14509;47.992;7.848;2023-06-10T04:23:25;21.40;47.80
2439;DHT22;14509;47.992;7.848;2023-06-10T04:25:27;21.30;47.60
2439;DHT22;14509;47.992;7.848;2023-06-10T04:27:29;21.30;47.60
2439;DHT22;14509;47.992;7.848;2023-06-10T04:29:32;21.70;47.90
2439;DHT22;14509;47.992;7.848;2023-06-10T04:31:34;21.40;47.70
2439;DHT22;14509;47.992;7.848;2023-06-10T04:33:36;21.30;47.70
2439;DHT22;14509;47.992;7.848;2023-06-10T04:35:39;21.30;47.70
2439;DHT22;14509;47.992;7.848;2023-06-10T04:37:42;21.40;47.80
2439;DHT22;14509;47.992;7.848;2023-06-10T04:39:47;21.50;48.00
2439;DHT22;14509;47.992;7.848;2023-06-10T04:41:49;21.30;47.80
2439;DHT22;14509;47.992;7.848;2023-06-10T04:43:51;21.60;48.00
2439;DHT22;14509;47.992;7.848;2023-06-10T04:45:53;21.70;48.10
2439;DHT22;14509;47.992;7.848;2023-06-10T04:47:55;21.30;47.80
2439;DHT22;14509;47.992;7.848;2023-06-10T04:49:58;21.30;47.90
2439;DHT22;14509;47.992;7.848;2023-06-10T04:52:00;21.10;47.70
2439;DHT22;14509;47.992;7.848;2023-06-10T04:54:02;22.00;48.30
2439;DHT22;14509;47.992;7.848;2023-06-10T04:56:06;21.40;47.70
2439;DHT22;14509;47.992;7.848;2023-06-10T04:58:08;21.70;47.80
2439;DHT22;14509;47.992;7.848;2023-06-10T05:00:11;21.50;47.30
2439;DHT22;14509;47.992;7.848;2023-06-10T05:02:13;21.60;47.30
2439;DHT22;14509;47.992;7.848;2023-06-10T05:04:15;21.70;47.10
2439;DHT22;14509;47.992;7.848;2023-06-10T05:06:17;22.20;47.30
2439;DHT22;14509;47.992;7.848;2023-06-10T05:08:19;21.80;46.90
2439;DHT22;14509;47.992;7.848;2023-06-10T05:10:21;21.90;46.70
2439;DHT22;14509;47.992;7.848;2023-06-10T05:12:25;21.90;46.50
2439;DHT22;14509;47.992;7.848;2023-06-10T05:14:27;21.90;46.70
2439;DHT22;14509;47.992;7.848;2023-06-10T05:16:29;22.10;46.60
2439;DHT22;14509;47.992;7.848;2023-06-10T05:18:31;22.10;46.30
2439;DHT22;14509;47.992;7.848;2023-06-10T05:20:33;22.20;46.00
2439;DHT22;14509;47.992;7.848;2023-06-10T05:22:35;22.30;45.70
2439;DHT22;14509;47.992;7.848;2023-06-10T05:24:37;22.40;45.60
2439;DHT22;14509;47.992;7.848;2023-06-10T05:26:39;22.90;45.80
2439;DHT22;14509;47.992;7.848;2023-06-10T05:28:43;22.60;45.30
2439;DHT22;14509;47.992;7.848;2023-06-10T05:30:45;22.70;45.80
2439;DHT22;14509;47.992;7.848;2023-06-10T05:32:47;22.80;45.00
2439;DHT22;14509;47.992;7.848;2023-06-10T05:34:49;22.80;44.90
2439;DHT22;14509;47.992;7.848;2023-06-10T05:36:51;23.00;44.70
2439;DHT22;14509;47.992;7.848;2023-06-10T05:57:11;23.70;43.50
2439;DHT22;14509;47.992;7.848;2023-06-10T05:59:13;23.80;43.90
2439;DHT22;14509;47.992;7.848;2023-06-10T06:01:15;23.80;43.10
2439;DHT22;14509;47.992;7.848;2023-06-10T06:03:17;23.90;43.20
2439;DHT22;14509;47.992;7.848;2023-06-10T06:05:19;24.20;44.00
2439;DHT22;14509;47.992;7.848;2023-06-10T06:07:21;24.20;43.40
2439;DHT22;14509;47.992;7.848;2023-06-10T06:09:23;24.10;43.30
2439;DHT22;14509;47.992;7.848;2023-06-10T06:11:25;24.20;43.30
2439;DHT22;14509;47.992;7.848;2023-06-10T06:13:29;24.30;43.40
2439;DHT22;14509;47.992;7.848;2023-06-10T06:15:30;24.50;43.50
2439;DHT22;14509;47.992;7.848;2023-06-10T06:17:32;24.50;43.40
2439;DHT22;14509;47.992;7.848;2023-06-10T06:19:34;24.60;43.40
2439;DHT22;14509;47.992;7.848;2023-06-10T06:21:36;25.70;44.00
2439;DHT22;14509;47.992;7.848;2023-06-10T06:23:38;24.80;44.40
2439;DHT22;14509;47.992;7.848;2023-06-10T06:25:40;25.20;44.20
2439;DHT22;14509;47.992;7.848;2023-06-10T06:27:42;24.90;44.00
2439;DHT22;14509;47.992;7.848;2023-06-10T06:29:45;25.00;44.10
2439;DHT22;14509;47.992;7.848;2023-06-10T06:31:47;25.10;44.00
2439;DHT22;14509;47.992;7.848;2023-06-10T06:33:49;25.10;43.50
2439;DHT22;14509;47.992;7.848;2023-06-10T06:35:50;25.20;43.50
2439;DHT22;14509;47.992;7.848;2023-06-10T06:37:52;25.60;43.60
2439;DHT22;14509;47.992;7.848;2023-06-10T06:40:00;25.60;43.50
2439;DHT22;14509;47.992;7.848;2023-06-10T06:42:02;25.40;43.20
2439;DHT22;14509;47.992;7.848;2023-06-10T06:44:36;25.40;43.00
2439;DHT22;14509;47.992;7.848;2023-06-10T06:46:39;25.60;42.80
2439;DHT22;14509;47.992;7.848;2023-06-10T06:48:41;25.60;42.70
2439;DHT22;14509;47.992;7.848;2023-06-10T06:50:43;25.70;42.50
2439;DHT22;14509;47.992;7.848;2023-06-10T06:52:45;25.90;42.60
2439;DHT22;14509;47.992;7.848;2023-06-10T06:54:46;25.80;42.40
2439;DHT22;14509;47.992;7.848;2023-06-10T06:56:48;25.90;42.30
2439;DHT22;14509;47.992;7.848;2023-06-10T06:58:50;25.90;42.30
2439;DHT22;14509;47.992;7.848;2023-06-10T07:00:52;26.10;42.30
2439;DHT22;14509;47.992;7.848;2023-06-10T07:02:58;26.10;42.40
2439;DHT22;14509;47.992;7.848;2023-06-10T07:05:01;27.10;43.00
2439;DHT22;14509;47.992;7.848;2023-06-10T07:07:06;26.20;42.60
2439;DHT22;14509;47.992;7.848;2023-06-10T07:09:08;26.30;42.70
2439;DHT22;14509;47.992;7.848;2023-06-10T07:11:10;26.30;42.70
2439;DHT22;14509;47.992;7.848;2023-06-10T07:13:12;26.40;42.70
2439;DHT22;14509;47.992;7.848;2023-06-10T07:15:14;26.40;43.20
2439;DHT22;14509;47.992;7.848;2023-06-10T07:17:16;26.50;42.70
2439;DHT22;14509;47.992;7.848;2023-06-10T07:19:20;26.50;42.70
2439;DHT22;14509;47.992;7.848;2023-06-10T07:21:21;26.50;42.20
2439;DHT22;14509;47.992;7.848;2023-06-10T07:23:24;26.50;42.20
2439;DHT22;14509;47.992;7.848;2023-06-10T07:25:26;26.50;42.30
2439;DHT22;14509;47.992;7.848;2023-06-10T07:27:27;26.60;42.70
2439;DHT22;14509;47.992;7.848;2023-06-10T07:29:29;26.50;42.60
2439;DHT22;14509;47.992;7.848;2023-06-10T07:31:31;26.70;42.60
2439;DHT22;14509;47.992;7.848;2023-06-10T07:33:34;26.70;42.60
2439;DHT22;14509;47.992;7.848;2023-06-10T07:35:38;26.80;42.50
2439;DHT22;14509;47.992;7.848;2023-06-10T07:37:40;26.90;42.30
2439;DHT22;14509;47.992;7.848;2023-06-10T07:39:42;26.90;42.10
2439;DHT22;14509;47.992;7.848;2023-06-10T07:41:45;27.00;42.10
2439;DHT22;14509;47.992;7.848;2023-06-10T07:43:47;27.10;42.00
2439;DHT22;14509;47.992;7.848;2023-06-10T07:45:54;27.10;41.70
2439;DHT22;14509;47.992;7.848;2023-06-10T07:47:57;27.20;41.50
2439;DHT22;14509;47.992;7.848;2023-06-10T07:50:01;27.30;41.30
2439;DHT22;14509;47.992;7.848;2023-06-10T07:52:05;27.30;41.40
2439;DHT22;14509;47.992;7.848;2023-06-10T07:54:07;27.40;41.40
2439;DHT22;14509;47.992;7.848;2023-06-10T07:56:09;27.50;41.20
2439;DHT22;14509;47.992;7.848;2023-06-10T07:58:11;27.50;40.60
2439;DHT22;14509;47.992;7.848;2023-06-10T08:00:14;27.60;40.40
2439;DHT22;14509;47.992;7.848;2023-06-10T08:02:16;27.70;40.40
2439;DHT22;14509;47.992;7.848;2023-06-10T08:04:18;27.70;39.80
2439;DHT22;14509;47.992;7.848;2023-06-10T08:06:19;28.20;39.70
2439;DHT22;14509;47.992;7.848;2023-06-10T08:08:23;27.90;39.50
2439;DHT22;14509;47.992;7.848;2023-06-10T08:10:25;27.90;39.30
2439;DHT22;14509;47.992;7.848;2023-06-10T08:12:27;27.90;39.40
2439;DHT22;14509;47.992;7.848;2023-06-10T08:14:30;27.90;39.40
2439;DHT22;14509;47.992;7.848;2023-06-10T08:16:32;28.00;39.50
2439;DHT22;14509;47.992;7.848;2023-06-10T08:18:34;28.00;39.30
2439;DHT22;14509;47.992;7.848;2023-06-10T08:20:36;28.00;39.50
2439;DHT22;14509;47.992;7.848;2023-06-10T08:22:38;28.10;39.80
2439;DHT22;14509;47.992;7.848;2023-06-10T08:24:42;28.10;40.10
2439;DHT22;14509;47.992;7.848;2023-06-10T08:26:46;28.50;40.50
2439;DHT22;14509;47.992;7.848;2023-06-10T08:28:49;28.30;40.10
2439;DHT22;14509;47.992;7.848;2023-06-10T08:30:51;28.30;39.60
2439;DHT22;14509;47.992;7.848;2023-06-10T08:32:53;28.40;39.60
2439;DHT22;14509;47.992;7.848;2023-06-10T08:34:56;28.40;39.40
2439;DHT22;14509;47.992;7.848;2023-06-10T08:37:02;28.50;39.30
2439;DHT22;14509;47.992;7.848;2023-06-10T08:39:13;28.50;39.00
2439;DHT22;14509;47.992;7.848;2023-06-10T08:41:19;28.60;38.90
2439;DHT22;14509;47.992;7.848;2023-06-10T08:43:27;28.60;38.90
2439;DHT22;14509;47.992;7.848;2023-06-10T08:45:32;28.60;38.60
2439;DHT22;14509;47.992;7.848;2023-06-10T08:47:39;28.70;38.80
2439;DHT22;14509;47.992;7.848;2023-06-10T08:49:44;28.70;38.60
2439;DHT22;14509;47.992;7.848;2023-06-10T08:51:48;28.60;38.60
2439;DHT22;14509;47.992;7.848;2023-06-10T08:54:01;28.90;38.50
2439;DHT22;14509;47.992;7.848;2023-06-10T08:56:04;28.90;38.10
2439;DHT22;14509;47.992;7.848;2023-06-10T08:58:08;29.00;37.80
2439;DHT22;14509;47.992;7.848;2023-06-10T09:00:11;29.00;37.90
2439;DHT22;14509;47.992;7.848;2023-06-10T09:02:14;29.10;38.40
2439;DHT22;14509;47.992;7.848;2023-06-10T09:04:16;29.20;38.50
2439;DHT22;14509;47.992;7.848;2023-06-10T09:06:23;29.20;38.50
2439;DHT22;14509;47.992;7.848;2023-06-10T09:08:33;29.30;38.10
2439;DHT22;14509;47.992;7.848;2023-06-10T09:10:37;29.40;38.10
2439;DHT22;14509;47.992;7.848;2023-06-10T09:12:40;29.50;38.00
2439;DHT22;14509;47.992;7.848;2023-06-10T09:14:43;29.50;37.90
2439;DHT22;14509;47.992;7.848;2023-06-10T09:16:45;29.60;37.80
2439;DHT22;14509;47.992;7.848;2023-06-10T09:18:48;29.60;37.50
2439;DHT22;14509;47.992;7.848;2023-06-10T09:20:55;29.80;37.00
2439;DHT22;14509;47.992;7.848;2023-06-10T09:22:58;29.80;37.10
2439;DHT22;14509;47.992;7.848;2023-06-10T09:25:04;29.90;37.50
2439;DHT22;14509;47.992;7.848;2023-06-10T09:27:09;29.80;37.30
2439;DHT22;14509;47.992;7.848;2023-06-10T09:29:11;29.90;37.50
2439;DHT22;14509;47.992;7.848;2023-06-10T09:31:15;29.90;38.00
2439;DHT22;14509;47.992;7.848;2023-06-10T09:33:18;30.00;37.10
2439;DHT22;14509;47.992;7.848;2023-06-10T09:35:22;30.20;37.20
2439;DHT22;14509;47.992;7.848;2023-06-10T09:37:24;30.30;37.20
2439;DHT22;14509;47.992;7.848;2023-06-10T09:39:26;30.30;36.70
2439;DHT22;14509;47.992;7.848;2023-06-10T09:41:35;30.40;36.90
2439;DHT22;14509;47.992;7.848;2023-06-10T09:43:40;30.50;37.00
2439;DHT22;14509;47.992;7.848;2023-06-10T09:45:43;30.50;36.50
2439;DHT22;14509;47.992;7.848;2023-06-10T09:47:50;30.50;36.20
2439;DHT22;14509;47.992;7.848;2023-06-10T09:49:52;30.60;36.00
2439;DHT22;14509;47.992;7.848;2023-06-10T09:51:55;30.60;36.00
2439;DHT22;14509;47.992;7.848;2023-06-10T09:53:58;30.70;36.00
2439;DHT22;14509;47.992;7.848;2023-06-10T09:56:00;30.70;36.00
2439;DHT22;14509;47.992;7.848;2023-06-10T09:58:03;30.70;35.40
2439;DHT22;14509;47.992;7.848;2023-06-10T10:00:07;30.80;35.20
2439;DHT22;14509;47.992;7.848;2023-06-10T10:02:15;30.80;35.50
2439;DHT22;14509;47.992;7.848;2023-06-10T10:04:24;30.90;35.80
2439;DHT22;14509;47.992;7.848;2023-06-10T10:06:27;31.00;35.50
2439;DHT22;14509;47.992;7.848;2023-06-10T10:08:30;31.00;35.30
2439;DHT22;14509;47.992;7.848;2023-06-10T10:10:32;31.10;34.60
2439;DHT22;14509;47.992;7.848;2023-06-10T10:12:35;31.10;34.70
2439;DHT22;14509;47.992;7.848;2023-06-10T10:14:38;31.10;34.70
2439;DHT22;14509;47.992;7.848;2023-06-10T10:16:41;31.10;34.90
2439;DHT22;14509;47.992;7.848;2023-06-10T10:18:46;31.10;35.00
2439;DHT22;14509;47.992;7.848;2023-06-10T10:20:51;31.10;34.80
2439;DHT22;14509;47.992;7.848;2023-06-10T10:22:57;31.20;34.60
2439;DHT22;14509;47.992;7.848;2023-06-10T10:25:02;31.30;34.50
2439;DHT22;14509;47.992;7.848;2023-06-10T10:27:18;31.40;34.30
2439;DHT22;14509;47.992;7.848;2023-06-10T10:29:24;31.50;33.80
2439;DHT22;14509;47.992;7.848;2023-06-10T10:31:27;31.70;34.00
2439;DHT22;14509;47.992;7.848;2023-06-10T10:33:36;31.80;33.90
2439;DHT22;14509;47.992;7.848;2023-06-10T10:35:42;31.90;33.50
2439;DHT22;14509;47.992;7.848;2023-06-10T10:37:47;31.90;33.50
2439;DHT22;14509;47.992;7.848;2023-06-10T10:39:50;32.00;33.20
2439;DHT22;14509;47.992;7.848;2023-06-10T10:41:52;32.00;33.10
2439;DHT22;14509;47.992;7.848;2023-06-10T10:43:54;32.00;32.80
2439;DHT22;14509;47.992;7.848;2023-06-10T10:46:01;32.10;32.80
2439;DHT22;14509;47.992;7.848;2023-06-10T10:48:07;32.20;32.40
2439;DHT22;14509;47.992;7.848;2023-06-10T10:50:14;32.10;32.50
2439;DHT22;14509;47.992;7.848;2023-06-10T10:52:16;32.00;32.10
2439;DHT22;14509;47.992;7.848;2023-06-10T10:54:28;32.00;32.40
2439;DHT22;14509;47.992;7.848;2023-06-10T10:56:31;32.00;32.40
2439;DHT22;14509;47.992;7.848;2023-06-10T10:58:34;32.00;32.30
2439;DHT22;14509;47.992;7.848;2023-06-10T11:00:38;32.00;32.50
2439;DHT22;14509;47.992;7.848;2023-06-10T11:02:45;32.10;32.40
2439;DHT22;14509;47.992;7.848;2023-06-10T11:04:49;32.20;32.40
2439;DHT22;14509;47.992;7.848;2023-06-10T11:06:54;32.20;31.70
2439;DHT22;14509;47.992;7.848;2023-06-10T11:08:57;32.30;31.70
2439;DHT22;14509;47.992;7.848;2023-06-10T11:11:18;32.40;31.60
2439;DHT22;14509;47.992;7.848;2023-06-10T11:13:22;32.50;31.80
2439;DHT22;14509;47.992;7.848;2023-06-10T11:15:27;32.60;31.20
2439;DHT22;14509;47.992;7.848;2023-06-10T11:17:29;32.80;30.70
2439;DHT22;14509;47.992;7.848;2023-06-10T11:19:32;32.90;30.40
2439;DHT22;14509;47.992;7.848;2023-06-10T11:21:59;33.10;30.40
2439;DHT22;14509;47.992;7.848;2023-06-10T11:24:11;33.10;30.60
2439;DHT22;14509;47.992;7.848;2023-06-10T11:26:21;33.00;29.90
2439;DHT22;14509;47.992;7.848;2023-06-10T11:28:27;33.10;30.10
2439;DHT22;14509;47.992;7.848;2023-06-10T11:30:34;33.00;29.90
2439;DHT22;14509;47.992;7.848;2023-06-10T11:32:36;33.00;29.80
2439;DHT22;14509;47.992;7.848;2023-06-10T11:34:40;32.90;29.80
2439;DHT22;14509;47.992;7.848;2023-06-10T11:36:43;33.00;30.00
2439;DHT22;14509;47.992;7.848;2023-06-10T11:38:48;33.10;30.10
2439;DHT22;14509;47.992;7.848;2023-06-10T11:40:51;33.20;30.00
2439;DHT22;14509;47.992;7.848;2023-06-10T11:42:55;33.40;29.80
2439;DHT22;14509;47.992;7.848;2023-06-10T11:44:58;33.60;29.10
2439;DHT22;14509;47.992;7.848;2023-06-10T11:47:03;33.70;28.90
2439;DHT22;14509;47.992;7.848;2023-06-10T11:49:06;33.80;28.90
2439;DHT22;14509;47.992;7.848;2023-06-10T11:51:09;34.00;28.70
2439;DHT22;14509;47.992;7.848;2023-06-10T11:53:11;34.10;28.50
2439;DHT22;14509;47.992;7.848;2023-06-10T11:55:12;34.10;28.30
2439;DHT22;14509;47.992;7.848;2023-06-10T11:57:14;34.00;28.50
2439;DHT22;14509;47.992;7.848;2023-06-10T11:59:18;34.00;28.60
2439;DHT22;14509;47.992;7.848;2023-06-10T12:01:20;34.00;28.60
2439;DHT22;14509;47.992;7.848;2023-06-10T12:03:24;34.00;28.20
2439;DHT22;14509;47.992;7.848;2023-06-10T12:05:26;34.10;28.20
2439;DHT22;14509;47.992;7.848;2023-06-10T12:07:28;34.30;28.20
2439;DHT22;14509;47.992;7.848;2023-06-10T12:09:30;34.60;27.80
2439;DHT22;14509;47.992;7.848;2023-06-10T12:11:34;34.90;27.30
2439;DHT22;14509;47.992;7.848;2023-06-10T12:13:37;35.20;27.10
2439;DHT22;14509;47.992;7.848;2023-06-10T12:15:49;35.50;26.80
2439;DHT22;14509;47.992;7.848;2023-06-10T12:17:51;35.70;26.30
2439;DHT22;14509;47.992;7.848;2023-06-10T12:19:53;35.70;26.70
2439;DHT22;14509;47.992;7.848;2023-06-10T12:21:55;35.80;26.40
2439;DHT22;14509;47.992;7.848;2023-06-10T12:24:01;35.90;25.80
2439;DHT22;14509;47.992;7.848;2023-06-10T12:26:04;35.90;25.80
2439;DHT22;14509;47.992;7.848;2023-06-10T12:28:10;35.80;25.70
2439;DHT22;14509;47.992;7.848;2023-06-10T12:30:18;35.70;25.80
2439;DHT22;14509;47.992;7.848;2023-06-10T12:32:22;35.70;26.10
2439;DHT22;14509;47.992;7.848;2023-06-10T12:34:37;35.70;26.30
2439;DHT22;14509;47.992;7.848;2023-06-10T12:36:40;35.60;26.10
2439;DHT22;14509;47.992;7.848;2023-06-10T12:38:49;35.40;26.10
2439;DHT22;14509;47.992;7.848;2023-06-10T12:40:53;35.20;26.50
2439;DHT22;14509;47.992;7.848;2023-06-10T12:42:57;35.00;26.50
2439;DHT22;14509;47.992;7.848;2023-06-10T12:44:59;34.90;27.50
2439;DHT22;14509;47.992;7.848;2023-06-10T12:47:07;34.70;27.70
2439;DHT22;14509;47.992;7.848;2023-06-10T12:49:20;34.50;27.40
2439;DHT22;14509;47.992;7.848;2023-06-10T12:51:22;34.40;28.70
2439;DHT22;14509;47.992;7.848;2023-06-10T12:53:25;34.30;32.70
2439;DHT22;14509;47.992;7.848;2023-06-10T12:55:27;34.20;34.80
2439;DHT22;14509;47.992;7.848;2023-06-10T12:57:30;34.00;36.20
2439;DHT22;14509;47.992;7.848;2023-06-10T12:59:31;33.90;37.40
2439;DHT22;14509;47.992;7.848;2023-06-10T13:01:33;33.90;37.20
2439;DHT22;14509;47.992;7.848;2023-06-10T13:03:38;33.90;37.00
2439;DHT22;14509;47.992;7.848;2023-06-10T13:05:42;34.00;36.50
2439;DHT22;14509;47.992;7.848;2023-06-10T13:07:44;34.10;36.50
2439;DHT22;14509;47.992;7.848;2023-06-10T13:09:47;34.30;37.00
2439;DHT22;14509;47.992;7.848;2023-06-10T13:11:49;34.40;38.80
2439;DHT22;14509;47.992;7.848;2023-06-10T13:13:53;34.50;40.10
2439;DHT22;14509;47.992;7.848;2023-06-10T13:15:55;34.60;40.30
2439;DHT22;14509;47.992;7.848;2023-06-10T13:17:56;34.60;40.00
2439;DHT22;14509;47.992;7.848;2023-06-10T13:19:59;34.50;40.40
2439;DHT22;14509;47.992;7.848;2023-06-10T13:22:02;34.40;41.30
2439;DHT22;14509;47.992;7.848;2023-06-10T13:24:05;34.30;41.20
2439;DHT22;14509;47.992;7.848;2023-06-10T13:26:07;34.10;41.70
2439;DHT22;14509;47.992;7.848;2023-06-10T13:28:09;33.90;41.10
2439;DHT22;14509;47.992;7.848;2023-06-10T13:30:12;33.70;41.40
2439;DHT22;14509;47.992;7.848;2023-06-10T13:32:14;33.60;40.90
2439;DHT22;14509;47.992;7.848;2023-06-10T13:34:15;33.50;40.80
2439;DHT22;14509;47.992;7.848;2023-06-10T13:36:17;33.50;39.20
2439;DHT22;14509;47.992;7.848;2023-06-10T13:38:21;33.50;37.50
2439;DHT22;14509;47.992;7.848;2023-06-10T13:40:23;33.50;35.40
2439;DHT22;14509;47.992;7.848;2023-06-10T13:42:25;33.50;35.80
2439;DHT22;14509;47.992;7.848;2023-06-10T13:44:29;33.80;37.80
2439;DHT22;14509;47.992;7.848;2023-06-10T13:46:34;34.00;39.20
2439;DHT22;14509;47.992;7.848;2023-06-10T13:48:36;34.30;38.50
2439;DHT22;14509;47.992;7.848;2023-06-10T13:50:38;34.60;38.50
2439;DHT22;14509;47.992;7.848;2023-06-10T13:52:40;34.90;37.30
2439;DHT22;14509;47.992;7.848;2023-06-10T13:54:43;35.20;38.10